OIBA  Abumusa Island  Airport

Iran

Add Bookmark
Status IATA
Operational AEU
Latitude Longitude
25° 52' 32" N 55° 1' 58" E
25.875700 55.033001
Local (DST + 5) UTC (GMT + 4)
Mar 3, 2015 08:09 Mar 3, 2015 04:39
Sunrise-Sunset Local UTC
Begin Civil Twilight 05:46 02:16
Sunrise 06:10 02:40
Sunset 05:53 14:23
End Civil Twilight 06:16 14:46

Current Weather

METAR Observed MVFR
OIBA 030400Z 27008KT 8000 SKC 22/16 Q1013 Tue, Mar 3, 2015 @ 04:00 UTC
(39 Minutes ago)
Marginal Visual Flight Rules
Wind Visibility Clouds Conditions
270° at 8 knots (15 kph) 8000 meters
  • Clear skies
  • No significant weather
Temperatures Readings Precipitation
Current Temp 22°C (72°F)
Dewpoint 16°C (61°F)
Humidity 69%
Altimeter 29.91"Hg
Sea Level Pressure 1013mb
Field Elevation 22.97'
None Recorded

Additional weather within a 92.6km radius of OIBA

Map ICAO Location
OIBS 49.4km W (274°)
OIBL 75.7km N (344°)
OMDB 76.9km S (154°)
OMSJ 77.8km S (141°)

24 Hour Weather History

Loading
-

24 Hour Weather Graphs

Loading
-

CheckWX.com is intended as a tool to help pilots better visualize weather data. It is not intended as a substitute for an official weather briefing obtained from a Flight Service Station. CheckWX.com does not meet the FAA requirements for an official pre-flight weather briefing. Therefore, it's important that pilots still call and obtain an official FSS pre-flight weather briefing.